DAOI

Ech Cheliff Airport

Algeria
METAR DAOI 170700Z 00000KT 9999 SCT026 FEW030CB 07/05 Q1024
Observed Flight Rules
Dec-17 @ 07:00 UTC (an hour ago) Visual Flight Rules
Wind Visibility Clouds
Calm 10,000+ meters
  • Scattered at 2,600' AGL
  • Few at 3,000' AGL
Temperatures Readings
Current 7°C / 45°F
Dewpoint 5°C / 41°F
Humidity 87%
Altimeter 30.24" Hg
Pressure 1024 hPa
Elevation 143
METAR DAOI 170700Z 00000KT 9999 SCT026 FEW030CB 07/05 Q1024
Observed Flight Rules
Dec-17 @ 07:00 UTC
(an hour ago)
VFR
Wind Visibility
Calm 10,000+ meters
Clouds
  • Scattered at 2,600' AGL
  • Few at 3,000' AGL
Temperature Dewpoint
7°C / 45°F 5°C / 41°F
Humidity Altimeter Pressure
87% 30.24" Hg 1024 hPa